sensor_id;sensor_type;location;lat;lon;timestamp;P1;durP1;ratioP1;P2;durP2;ratioP2
12593;SDS011;6362;50.208;9.182;2024-02-26T00:02:05;2.95;;;1.23;;
12593;SDS011;6362;50.208;9.182;2024-02-26T00:04:31;2.35;;;1.13;;
12593;SDS011;6362;50.208;9.182;2024-02-26T00:06:57;2.05;;;1.10;;
12593;SDS011;6362;50.208;9.182;2024-02-26T00:09:23;2.08;;;1.40;;
12593;SDS011;6362;50.208;9.182;2024-02-26T00:11:48;1.67;;;1.05;;
12593;SDS011;6362;50.208;9.182;2024-02-26T00:14:14;1.85;;;1.30;;
12593;SDS011;6362;50.208;9.182;2024-02-26T00:16:40;2.50;;;1.60;;
12593;SDS011;6362;50.208;9.182;2024-02-26T00:19:06;2.58;;;1.30;;
12593;SDS011;6362;50.208;9.182;2024-02-26T00:21:32;2.05;;;1.17;;
12593;SDS011;6362;50.208;9.182;2024-02-26T00:23:57;5.80;;;1.35;;
12593;SDS011;6362;50.208;9.182;2024-02-26T00:26:23;1.35;;;1.10;;
12593;SDS011;6362;50.208;9.182;2024-02-26T00:28:48;1.30;;;1.20;;
12593;SDS011;6362;50.208;9.182;2024-02-26T00:31:14;1.35;;;1.23;;
12593;SDS011;6362;50.208;9.182;2024-02-26T00:33:39;2.45;;;1.48;;
12593;SDS011;6362;50.208;9.182;2024-02-26T00:36:05;2.47;;;1.58;;
12593;SDS011;6362;50.208;9.182;2024-02-26T00:38:31;2.63;;;1.52;;
12593;SDS011;6362;50.208;9.182;2024-02-26T00:40:56;2.08;;;1.60;;
12593;SDS011;6362;50.208;9.182;2024-02-26T00:43:22;2.47;;;1.25;;
12593;SDS011;6362;50.208;9.182;2024-02-26T00:45:47;2.80;;;1.75;;
12593;SDS011;6362;50.208;9.182;2024-02-26T00:48:13;2.25;;;1.45;;
12593;SDS011;6362;50.208;9.182;2024-02-26T00:50:39;3.08;;;1.63;;
12593;SDS011;6362;50.208;9.182;2024-02-26T00:53:05;2.88;;;1.75;;
12593;SDS011;6362;50.208;9.182;2024-02-26T00:55:30;2.25;;;1.58;;
12593;SDS011;6362;50.208;9.182;2024-02-26T00:57:55;2.22;;;1.38;;
12593;SDS011;6362;50.208;9.182;2024-02-26T01:00:21;3.72;;;1.67;;
12593;SDS011;6362;50.208;9.182;2024-02-26T01:02:47;3.17;;;1.67;;
12593;SDS011;6362;50.208;9.182;2024-02-26T01:05:13;2.95;;;1.40;;
12593;SDS011;6362;50.208;9.182;2024-02-26T01:07:39;2.47;;;1.65;;
12593;SDS011;6362;50.208;9.182;2024-02-26T01:10:05;5.20;;;1.50;;
12593;SDS011;6362;50.208;9.182;2024-02-26T01:12:34;2.40;;;1.63;;
12593;SDS011;6362;50.208;9.182;2024-02-26T01:15:00;3.95;;;2.22;;
12593;SDS011;6362;50.208;9.182;2024-02-26T01:17:28;3.88;;;1.90;;
12593;SDS011;6362;50.208;9.182;2024-02-26T01:19:53;2.78;;;1.60;;
12593;SDS011;6362;50.208;9.182;2024-02-26T01:22:19;4.00;;;1.83;;
12593;SDS011;6362;50.208;9.182;2024-02-26T01:24:45;3.40;;;1.55;;
12593;SDS011;6362;50.208;9.182;2024-02-26T01:27:11;2.92;;;1.83;;
12593;SDS011;6362;50.208;9.182;2024-02-26T01:29:36;3.50;;;1.83;;
12593;SDS011;6362;50.208;9.182;2024-02-26T01:32:01;5.47;;;1.77;;
12593;SDS011;6362;50.208;9.182;2024-02-26T01:34:29;2.83;;;1.70;;
12593;SDS011;6362;50.208;9.182;2024-02-26T01:36:54;2.72;;;1.60;;
12593;SDS011;6362;50.208;9.182;2024-02-26T01:39:21;2.85;;;1.92;;
12593;SDS011;6362;50.208;9.182;2024-02-26T01:41:47;3.22;;;1.80;;
12593;SDS011;6362;50.208;9.182;2024-02-26T01:44:12;3.08;;;1.92;;
12593;SDS011;6362;50.208;9.182;2024-02-26T01:46:41;3.35;;;1.80;;
12593;SDS011;6362;50.208;9.182;2024-02-26T01:49:07;3.00;;;1.92;;
12593;SDS011;6362;50.208;9.182;2024-02-26T01:51:37;1.88;;;1.48;;
12593;SDS011;6362;50.208;9.182;2024-02-26T01:54:05;2.72;;;1.90;;
12593;SDS011;6362;50.208;9.182;2024-02-26T01:56:32;4.15;;;2.00;;
12593;SDS011;6362;50.208;9.182;2024-02-26T01:59:00;2.90;;;1.65;;
12593;SDS011;6362;50.208;9.182;2024-02-26T02:01:30;2.22;;;1.50;;
12593;SDS011;6362;50.208;9.182;2024-02-26T02:03:57;3.22;;;1.98;;
12593;SDS011;6362;50.208;9.182;2024-02-26T02:06:24;4.20;;;1.77;;
12593;SDS011;6362;50.208;9.182;2024-02-26T02:08:50;2.47;;;1.70;;
12593;SDS011;6362;50.208;9.182;2024-02-26T02:11:16;2.22;;;1.48;;
12593;SDS011;6362;50.208;9.182;2024-02-26T02:13:42;4.30;;;1.50;;
12593;SDS011;6362;50.208;9.182;2024-02-26T02:16:07;3.88;;;1.98;;
12593;SDS011;6362;50.208;9.182;2024-02-26T02:18:33;2.65;;;1.63;;
12593;SDS011;6362;50.208;9.182;2024-02-26T02:21:02;3.83;;;1.75;;
12593;SDS011;6362;50.208;9.182;2024-02-26T02:23:28;3.05;;;1.40;;
12593;SDS011;6362;50.208;9.182;2024-02-26T02:25:54;1.75;;;1.17;;
12593;SDS011;6362;50.208;9.182;2024-02-26T02:28:21;4.07;;;1.50;;
12593;SDS011;6362;50.208;9.182;2024-02-26T02:30:48;2.83;;;1.60;;
12593;SDS011;6362;50.208;9.182;2024-02-26T02:33:14;3.10;;;1.58;;
12593;SDS011;6362;50.208;9.182;2024-02-26T02:35:41;3.17;;;1.48;;
12593;SDS011;6362;50.208;9.182;2024-02-26T02:38:06;1.98;;;1.48;;
12593;SDS011;6362;50.208;9.182;2024-02-26T02:40:32;3.75;;;1.30;;
12593;SDS011;6362;50.208;9.182;2024-02-26T02:42:57;2.28;;;1.20;;
12593;SDS011;6362;50.208;9.182;2024-02-26T02:45:23;1.95;;;1.25;;
12593;SDS011;6362;50.208;9.182;2024-02-26T02:47:49;1.98;;;1.23;;
12593;SDS011;6362;50.208;9.182;2024-02-26T02:50:14;2.05;;;1.40;;
12593;SDS011;6362;50.208;9.182;2024-02-26T02:52:40;1.95;;;1.30;;
12593;SDS011;6362;50.208;9.182;2024-02-26T02:55:05;4.93;;;1.45;;
12593;SDS011;6362;50.208;9.182;2024-02-26T02:57:31;1.65;;;1.00;;
12593;SDS011;6362;50.208;9.182;2024-02-26T02:59:58;1.67;;;1.20;;
12593;SDS011;6362;50.208;9.182;2024-02-26T03:02:23;2.58;;;1.48;;
12593;SDS011;6362;50.208;9.182;2024-02-26T03:04:50;2.83;;;1.70;;
12593;SDS011;6362;50.208;9.182;2024-02-26T03:07:16;2.58;;;1.20;;
12593;SDS011;6362;50.208;9.182;2024-02-26T03:09:41;1.45;;;1.08;;
12593;SDS011;6362;50.208;9.182;2024-02-26T03:12:07;2.45;;;1.20;;
12593;SDS011;6362;50.208;9.182;2024-02-26T03:14:32;1.63;;;1.08;;
12593;SDS011;6362;50.208;9.182;2024-02-26T03:16:58;2.13;;;1.33;;
12593;SDS011;6362;50.208;9.182;2024-02-26T03:19:23;1.98;;;1.20;;
12593;SDS011;6362;50.208;9.182;2024-02-26T03:21:49;2.33;;;1.15;;
12593;SDS011;6362;50.208;9.182;2024-02-26T03:24:14;2.15;;;1.25;;
12593;SDS011;6362;50.208;9.182;2024-02-26T03:26:40;2.30;;;1.27;;
12593;SDS011;6362;50.208;9.182;2024-02-26T03:29:05;3.05;;;1.52;;
12593;SDS011;6362;50.208;9.182;2024-02-26T03:31:31;3.33;;;1.25;;
12593;SDS011;6362;50.208;9.182;2024-02-26T03:33:56;2.28;;;1.17;;
12593;SDS011;6362;50.208;9.182;2024-02-26T03:36:22;2.40;;;1.38;;
12593;SDS011;6362;50.208;9.182;2024-02-26T03:38:48;2.03;;;1.30;;
12593;SDS011;6362;50.208;9.182;2024-02-26T03:41:14;3.70;;;1.52;;
12593;SDS011;6362;50.208;9.182;2024-02-26T03:43:39;3.45;;;1.17;;
12593;SDS011;6362;50.208;9.182;2024-02-26T03:46:08;1.45;;;1.00;;
12593;SDS011;6362;50.208;9.182;2024-02-26T03:48:36;1.33;;;0.95;;
12593;SDS011;6362;50.208;9.182;2024-02-26T03:51:01;2.00;;;1.80;;
12593;SDS011;6362;50.208;9.182;2024-02-26T03:53:27;1.92;;;1.23;;
12593;SDS011;6362;50.208;9.182;2024-02-26T03:55:53;2.05;;;1.17;;
12593;SDS011;6362;50.208;9.182;2024-02-26T03:58:20;1.85;;;1.20;;
12593;SDS011;6362;50.208;9.182;2024-02-26T04:00:45;1.80;;;1.13;;
12593;SDS011;6362;50.208;9.182;2024-02-26T04:03:12;3.22;;;1.20;;
12593;SDS011;6362;50.208;9.182;2024-02-26T04:05:38;1.63;;;1.25;;
12593;SDS011;6362;50.208;9.182;2024-02-26T04:08:04;2.15;;;1.38;;
12593;SDS011;6362;50.208;9.182;2024-02-26T04:10:32;2.25;;;1.20;;
12593;SDS011;6362;50.208;9.182;2024-02-26T04:12:57;4.68;;;1.85;;
12593;SDS011;6362;50.208;9.182;2024-02-26T04:15:23;1.95;;;1.30;;
12593;SDS011;6362;50.208;9.182;2024-02-26T04:17:48;1.98;;;1.40;;
12593;SDS011;6362;50.208;9.182;2024-02-26T04:20:14;2.85;;;1.50;;
12593;SDS011;6362;50.208;9.182;2024-02-26T04:22:43;2.70;;;1.45;;
12593;SDS011;6362;50.208;9.182;2024-02-26T04:25:09;2.25;;;1.27;;
12593;SDS011;6362;50.208;9.182;2024-02-26T04:27:34;2.25;;;1.55;;
12593;SDS011;6362;50.208;9.182;2024-02-26T04:30:00;3.25;;;1.65;;
12593;SDS011;6362;50.208;9.182;2024-02-26T04:32:25;1.58;;;1.20;;
12593;SDS011;6362;50.208;9.182;2024-02-26T04:34:51;3.58;;;1.40;;
12593;SDS011;6362;50.208;9.182;2024-02-26T04:37:16;2.65;;;1.70;;
12593;SDS011;6362;50.208;9.182;2024-02-26T04:39:42;1.73;;;1.30;;
12593;SDS011;6362;50.208;9.182;2024-02-26T04:42:07;2.05;;;1.30;;
12593;SDS011;6362;50.208;9.182;2024-02-26T04:44:33;2.38;;;1.20;;
12593;SDS011;6362;50.208;9.182;2024-02-26T04:46:58;3.42;;;1.27;;
12593;SDS011;6362;50.208;9.182;2024-02-26T04:49:23;4.38;;;1.60;;
12593;SDS011;6362;50.208;9.182;2024-02-26T04:51:49;2.05;;;1.30;;
12593;SDS011;6362;50.208;9.182;2024-02-26T04:54:14;1.90;;;1.40;;
12593;SDS011;6362;50.208;9.182;2024-02-26T04:56:40;2.60;;;1.50;;
12593;SDS011;6362;50.208;9.182;2024-02-26T04:59:05;2.17;;;1.40;;
12593;SDS011;6362;50.208;9.182;2024-02-26T05:01:31;3.63;;;1.65;;
12593;SDS011;6362;50.208;9.182;2024-02-26T05:03:56;3.15;;;1.58;;
12593;SDS011;6362;50.208;9.182;2024-02-26T05:06:22;2.38;;;1.38;;
12593;SDS011;6362;50.208;9.182;2024-02-26T05:08:47;3.33;;;1.80;;
12593;SDS011;6362;50.208;9.182;2024-02-26T05:11:13;3.10;;;1.58;;
12593;SDS011;6362;50.208;9.182;2024-02-26T05:13:38;1.85;;;1.25;;
12593;SDS011;6362;50.208;9.182;2024-02-26T05:16:04;2.90;;;1.70;;
12593;SDS011;6362;50.208;9.182;2024-02-26T05:18:29;1.92;;;1.42;;
12593;SDS011;6362;50.208;9.182;2024-02-26T05:20:55;4.43;;;1.85;;
12593;SDS011;6362;50.208;9.182;2024-02-26T05:23:20;3.38;;;1.90;;
12593;SDS011;6362;50.208;9.182;2024-02-26T05:25:46;1.85;;;1.48;;
12593;SDS011;6362;50.208;9.182;2024-02-26T05:28:13;2.33;;;1.40;;
12593;SDS011;6362;50.208;9.182;2024-02-26T05:30:40;2.83;;;1.48;;
12593;SDS011;6362;50.208;9.182;2024-02-26T05:33:06;2.08;;;1.35;;
12593;SDS011;6362;50.208;9.182;2024-02-26T05:35:31;3.13;;;1.65;;
12593;SDS011;6362;50.208;9.182;2024-02-26T05:37:57;3.25;;;1.58;;
12593;SDS011;6362;50.208;9.182;2024-02-26T05:40:22;3.25;;;1.60;;
12593;SDS011;6362;50.208;9.182;2024-02-26T05:42:48;2.95;;;1.88;;
12593;SDS011;6362;50.208;9.182;2024-02-26T05:45:14;4.30;;;1.50;;
12593;SDS011;6362;50.208;9.182;2024-02-26T05:47:39;3.80;;;1.80;;
12593;SDS011;6362;50.208;9.182;2024-02-26T05:50:08;5.75;;;1.77;;
12593;SDS011;6362;50.208;9.182;2024-02-26T05:52:36;3.90;;;1.70;;
12593;SDS011;6362;50.208;9.182;2024-02-26T05:55:02;2.30;;;1.48;;
12593;SDS011;6362;50.208;9.182;2024-02-26T05:57:28;2.72;;;1.70;;
12593;SDS011;6362;50.208;9.182;2024-02-26T05:59:53;3.47;;;1.63;;
12593;SDS011;6362;50.208;9.182;2024-02-26T06:02:19;3.20;;;2.13;;
12593;SDS011;6362;50.208;9.182;2024-02-26T06:04:44;3.42;;;1.95;;
12593;SDS011;6362;50.208;9.182;2024-02-26T06:07:11;2.88;;;1.73;;
12593;SDS011;6362;50.208;9.182;2024-02-26T06:09:37;2.90;;;1.70;;
12593;SDS011;6362;50.208;9.182;2024-02-26T06:12:02;3.08;;;2.30;;
12593;SDS011;6362;50.208;9.182;2024-02-26T06:14:28;5.43;;;2.50;;
12593;SDS011;6362;50.208;9.182;2024-02-26T06:16:53;4.00;;;2.90;;
12593;SDS011;6362;50.208;9.182;2024-02-26T06:19:19;5.40;;;2.80;;
12593;SDS011;6362;50.208;9.182;2024-02-26T06:21:44;4.57;;;2.63;;
12593;SDS011;6362;50.208;9.182;2024-02-26T06:24:10;5.40;;;2.53;;
12593;SDS011;6362;50.208;9.182;2024-02-26T06:26:35;5.15;;;2.67;;
12593;SDS011;6362;50.208;9.182;2024-02-26T06:29:00;4.28;;;2.33;;
12593;SDS011;6362;50.208;9.182;2024-02-26T06:31:26;4.97;;;2.58;;
12593;SDS011;6362;50.208;9.182;2024-02-26T06:33:53;5.50;;;2.88;;
12593;SDS011;6362;50.208;9.182;2024-02-26T06:36:21;4.30;;;2.53;;
12593;SDS011;6362;50.208;9.182;2024-02-26T06:38:47;4.45;;;2.50;;
12593;SDS011;6362;50.208;9.182;2024-02-26T06:41:12;6.95;;;2.72;;
12593;SDS011;6362;50.208;9.182;2024-02-26T06:43:38;4.57;;;2.38;;
12593;SDS011;6362;50.208;9.182;2024-02-26T06:46:03;5.57;;;2.65;;
12593;SDS011;6362;50.208;9.182;2024-02-26T06:48:30;4.97;;;2.58;;
12593;SDS011;6362;50.208;9.182;2024-02-26T06:50:56;3.70;;;2.15;;
12593;SDS011;6362;50.208;9.182;2024-02-26T06:53:21;6.45;;;2.95;;
12593;SDS011;6362;50.208;9.182;2024-02-26T06:55:46;5.20;;;3.05;;
12593;SDS011;6362;50.208;9.182;2024-02-26T06:58:14;4.63;;;2.92;;
12593;SDS011;6362;50.208;9.182;2024-02-26T07:00:40;3.88;;;2.13;;
12593;SDS011;6362;50.208;9.182;2024-02-26T07:03:05;4.03;;;2.58;;
12593;SDS011;6362;50.208;9.182;2024-02-26T07:05:32;4.70;;;2.45;;
12593;SDS011;6362;50.208;9.182;2024-02-26T07:07:57;5.15;;;3.38;;
12593;SDS011;6362;50.208;9.182;2024-02-26T07:10:23;4.53;;;2.13;;
12593;SDS011;6362;50.208;9.182;2024-02-26T07:12:48;4.53;;;2.65;;
12593;SDS011;6362;50.208;9.182;2024-02-26T07:15:14;4.15;;;2.13;;
12593;SDS011;6362;50.208;9.182;2024-02-26T07:17:39;3.17;;;2.20;;
12593;SDS011;6362;50.208;9.182;2024-02-26T07:20:07;3.75;;;1.95;;
12593;SDS011;6362;50.208;9.182;2024-02-26T07:22:34;4.45;;;2.67;;
12593;SDS011;6362;50.208;9.182;2024-02-26T07:24:59;4.50;;;2.22;;
12593;SDS011;6362;50.208;9.182;2024-02-26T07:27:25;6.85;;;3.67;;
12593;SDS011;6362;50.208;9.182;2024-02-26T07:29:50;5.20;;;2.90;;
12593;SDS011;6362;50.208;9.182;2024-02-26T07:32:16;3.92;;;2.53;;
12593;SDS011;6362;50.208;9.182;2024-02-26T07:34:41;5.35;;;2.80;;
12593;SDS011;6362;50.208;9.182;2024-02-26T07:37:07;4.20;;;2.38;;
12593;SDS011;6362;50.208;9.182;2024-02-26T07:39:33;5.25;;;2.42;;
12593;SDS011;6362;50.208;9.182;2024-02-26T07:41:58;6.00;;;2.60;;
12593;SDS011;6362;50.208;9.182;2024-02-26T07:44:24;5.35;;;2.78;;
12593;SDS011;6362;50.208;9.182;2024-02-26T07:46:49;5.13;;;2.50;;
12593;SDS011;6362;50.208;9.182;2024-02-26T07:49:15;4.18;;;2.17;;
12593;SDS011;6362;50.208;9.182;2024-02-26T07:51:40;4.50;;;2.28;;
12593;SDS011;6362;50.208;9.182;2024-02-26T07:54:06;5.25;;;2.60;;
12593;SDS011;6362;50.208;9.182;2024-02-26T07:56:31;7.30;;;2.70;;
12593;SDS011;6362;50.208;9.182;2024-02-26T07:58:57;5.28;;;2.97;;
12593;SDS011;6362;50.208;9.182;2024-02-26T08:01:22;5.40;;;2.65;;
12593;SDS011;6362;50.208;9.182;2024-02-26T08:03:48;4.15;;;2.42;;
12593;SDS011;6362;50.208;9.182;2024-02-26T08:06:13;6.18;;;3.20;;
12593;SDS011;6362;50.208;9.182;2024-02-26T08:08:39;4.28;;;2.30;;
12593;SDS011;6362;50.208;9.182;2024-02-26T08:11:04;5.53;;;3.03;;
12593;SDS011;6362;50.208;9.182;2024-02-26T08:13:30;5.18;;;2.90;;
12593;SDS011;6362;50.208;9.182;2024-02-26T08:15:56;5.80;;;2.80;;
12593;SDS011;6362;50.208;9.182;2024-02-26T08:18:21;3.95;;;2.40;;
12593;SDS011;6362;50.208;9.182;2024-02-26T08:20:47;4.55;;;2.67;;
12593;SDS011;6362;50.208;9.182;2024-02-26T08:23:14;4.28;;;2.70;;
12593;SDS011;6362;50.208;9.182;2024-02-26T08:25:39;6.65;;;3.45;;
12593;SDS011;6362;50.208;9.182;2024-02-26T08:28:05;6.28;;;2.90;;
12593;SDS011;6362;50.208;9.182;2024-02-26T08:30:30;5.40;;;3.08;;
12593;SDS011;6362;50.208;9.182;2024-02-26T08:32:56;7.55;;;3.22;;
12593;SDS011;6362;50.208;9.182;2024-02-26T08:35:21;4.95;;;3.53;;
12593;SDS011;6362;50.208;9.182;2024-02-26T08:37:47;5.93;;;2.75;;
12593;SDS011;6362;50.208;9.182;2024-02-26T08:40:13;5.15;;;3.40;;
12593;SDS011;6362;50.208;9.182;2024-02-26T08:42:39;4.80;;;3.20;;
12593;SDS011;6362;50.208;9.182;2024-02-26T08:45:04;9.65;;;5.32;;
12593;SDS011;6362;50.208;9.182;2024-02-26T08:47:31;9.82;;;4.95;;
12593;SDS011;6362;50.208;9.182;2024-02-26T08:49:57;7.20;;;3.45;;
12593;SDS011;6362;50.208;9.182;2024-02-26T08:52:23;5.28;;;2.78;;
12593;SDS011;6362;50.208;9.182;2024-02-26T08:54:48;7.93;;;3.55;;
12593;SDS011;6362;50.208;9.182;2024-02-26T08:57:14;7.68;;;3.88;;
12593;SDS011;6362;50.208;9.182;2024-02-26T08:59:40;5.10;;;2.80;;
12593;SDS011;6362;50.208;9.182;2024-02-26T09:02:05;5.00;;;3.03;;
12593;SDS011;6362;50.208;9.182;2024-02-26T09:04:33;5.15;;;3.15;;
12593;SDS011;6362;50.208;9.182;2024-02-26T09:06:59;7.18;;;3.30;;
12593;SDS011;6362;50.208;9.182;2024-02-26T09:09:24;8.38;;;3.47;;
12593;SDS011;6362;50.208;9.182;2024-02-26T09:11:51;5.28;;;2.97;;
12593;SDS011;6362;50.208;9.182;2024-02-26T09:14:17;5.63;;;2.92;;
12593;SDS011;6362;50.208;9.182;2024-02-26T09:16:43;6.63;;;4.38;;
12593;SDS011;6362;50.208;9.182;2024-02-26T09:19:08;5.70;;;3.55;;
12593;SDS011;6362;50.208;9.182;2024-02-26T09:21:34;6.85;;;3.15;;
12593;SDS011;6362;50.208;9.182;2024-02-26T09:23:59;5.90;;;2.85;;
12593;SDS011;6362;50.208;9.182;2024-02-26T09:26:25;4.35;;;2.90;;
12593;SDS011;6362;50.208;9.182;2024-02-26T09:28:50;6.45;;;3.25;;
12593;SDS011;6362;50.208;9.182;2024-02-26T09:31:17;6.05;;;3.33;;
12593;SDS011;6362;50.208;9.182;2024-02-26T09:33:43;5.65;;;2.88;;
12593;SDS011;6362;50.208;9.182;2024-02-26T09:36:09;5.45;;;3.55;;
12593;SDS011;6362;50.208;9.182;2024-02-26T09:38:36;10.80;;;6.57;;
12593;SDS011;6362;50.208;9.182;2024-02-26T09:41:03;7.22;;;4.43;;
12593;SDS011;6362;50.208;9.182;2024-02-26T09:43:34;6.65;;;4.00;;
12593;SDS011;6362;50.208;9.182;2024-02-26T09:46:01;7.18;;;3.50;;
12593;SDS011;6362;50.208;9.182;2024-02-26T09:48:26;4.68;;;2.88;;
12593;SDS011;6362;50.208;9.182;2024-02-26T09:50:53;7.40;;;4.43;;
12593;SDS011;6362;50.208;9.182;2024-02-26T09:53:18;7.32;;;4.90;;
12593;SDS011;6362;50.208;9.182;2024-02-26T09:55:47;9.32;;;5.68;;
12593;SDS011;6362;50.208;9.182;2024-02-26T09:58:12;7.38;;;3.42;;
12593;SDS011;6362;50.208;9.182;2024-02-26T10:00:43;7.57;;;3.53;;
12593;SDS011;6362;50.208;9.182;2024-02-26T10:03:13;6.70;;;3.35;;
12593;SDS011;6362;50.208;9.182;2024-02-26T10:05:41;6.60;;;5.07;;
12593;SDS011;6362;50.208;9.182;2024-02-26T10:08:08;8.25;;;5.18;;
12593;SDS011;6362;50.208;9.182;2024-02-26T10:10:34;5.85;;;3.75;;
12593;SDS011;6362;50.208;9.182;2024-02-26T10:13:01;7.03;;;4.03;;
12593;SDS011;6362;50.208;9.182;2024-02-26T10:15:29;6.78;;;4.43;;
12593;SDS011;6362;50.208;9.182;2024-02-26T10:17:54;6.90;;;4.28;;
12593;SDS011;6362;50.208;9.182;2024-02-26T10:20:20;5.70;;;3.72;;
12593;SDS011;6362;50.208;9.182;2024-02-26T10:22:48;7.55;;;4.85;;
12593;SDS011;6362;50.208;9.182;2024-02-26T10:25:14;7.88;;;3.47;;
12593;SDS011;6362;50.208;9.182;2024-02-26T10:27:40;5.38;;;3.28;;
12593;SDS011;6362;50.208;9.182;2024-02-26T10:30:21;6.18;;;3.50;;
12593;SDS011;6362;50.208;9.182;2024-02-26T10:32:50;6.20;;;3.60;;
12593;SDS011;6362;50.208;9.182;2024-02-26T10:35:16;7.43;;;3.83;;
12593;SDS011;6362;50.208;9.182;2024-02-26T10:37:43;5.00;;;3.42;;
12593;SDS011;6362;50.208;9.182;2024-02-26T10:40:09;7.53;;;4.28;;
12593;SDS011;6362;50.208;9.182;2024-02-26T10:42:36;5.95;;;3.80;;
12593;SDS011;6362;50.208;9.182;2024-02-26T10:45:02;6.28;;;4.05;;
12593;SDS011;6362;50.208;9.182;2024-02-26T10:47:29;6.10;;;3.65;;
12593;SDS011;6362;50.208;9.182;2024-02-26T10:49:55;6.15;;;4.03;;
12593;SDS011;6362;50.208;9.182;2024-02-26T10:52:21;7.30;;;3.78;;
12593;SDS011;6362;50.208;9.182;2024-02-26T10:54:50;6.80;;;3.83;;
12593;SDS011;6362;50.208;9.182;2024-02-26T10:57:22;5.72;;;4.13;;
12593;SDS011;6362;50.208;9.182;2024-02-26T10:59:49;5.53;;;3.58;;
12593;SDS011;6362;50.208;9.182;2024-02-26T11:02:19;7.05;;;4.15;;
12593;SDS011;6362;50.208;9.182;2024-02-26T11:04:45;5.55;;;3.85;;
12593;SDS011;6362;50.208;9.182;2024-02-26T11:07:11;5.57;;;3.72;;
12593;SDS011;6362;50.208;9.182;2024-02-26T11:09:38;7.32;;;4.45;;
12593;SDS011;6362;50.208;9.182;2024-02-26T11:12:09;6.60;;;3.75;;
12593;SDS011;6362;50.208;9.182;2024-02-26T11:14:38;4.88;;;3.10;;
12593;SDS011;6362;50.208;9.182;2024-02-26T11:17:05;5.72;;;3.53;;
12593;SDS011;6362;50.208;9.182;2024-02-26T11:19:34;6.70;;;3.92;;
12593;SDS011;6362;50.208;9.182;2024-02-26T11:22:01;7.55;;;3.72;;
12593;SDS011;6362;50.208;9.182;2024-02-26T11:24:27;7.13;;;4.15;;
12593;SDS011;6362;50.208;9.182;2024-02-26T11:26:54;11.32;;;3.90;;
12593;SDS011;6362;50.208;9.182;2024-02-26T11:29:27;9.60;;;4.10;;
12593;SDS011;6362;50.208;9.182;2024-02-26T11:31:59;5.15;;;3.22;;
12593;SDS011;6362;50.208;9.182;2024-02-26T11:34:25;9.60;;;4.40;;
12593;SDS011;6362;50.208;9.182;2024-02-26T11:36:52;5.28;;;2.97;;
12593;SDS011;6362;50.208;9.182;2024-02-26T11:39:18;6.30;;;3.65;;
12593;SDS011;6362;50.208;9.182;2024-02-26T11:41:44;6.63;;;3.55;;
12593;SDS011;6362;50.208;9.182;2024-02-26T11:44:10;6.72;;;3.28;;
12593;SDS011;6362;50.208;9.182;2024-02-26T11:46:39;6.03;;;3.00;;
12593;SDS011;6362;50.208;9.182;2024-02-26T11:51:56;4.68;;;3.05;;
12593;SDS011;6362;50.208;9.182;2024-02-26T11:59:55;8.88;;;3.70;;
12593;SDS011;6362;50.208;9.182;2024-02-26T12:02:44;5.88;;;3.33;;
12593;SDS011;6362;50.208;9.182;2024-02-26T12:05:23;7.03;;;2.72;;
12593;SDS011;6362;50.208;9.182;2024-02-26T12:07:52;5.57;;;3.28;;
12593;SDS011;6362;50.208;9.182;2024-02-26T12:10:23;5.30;;;3.42;;
12593;SDS011;6362;50.208;9.182;2024-02-26T12:13:00;5.10;;;2.88;;
12593;SDS011;6362;50.208;9.182;2024-02-26T12:15:31;6.68;;;3.90;;
12593;SDS011;6362;50.208;9.182;2024-02-26T12:17:59;5.57;;;3.08;;
12593;SDS011;6362;50.208;9.182;2024-02-26T12:20:26;6.30;;;2.88;;
12593;SDS011;6362;50.208;9.182;2024-02-26T12:22:51;4.57;;;2.72;;
12593;SDS011;6362;50.208;9.182;2024-02-26T12:25:25;4.18;;;2.65;;
12593;SDS011;6362;50.208;9.182;2024-02-26T12:27:52;4.55;;;3.00;;
12593;SDS011;6362;50.208;9.182;2024-02-26T12:30:18;4.10;;;2.65;;
12593;SDS011;6362;50.208;9.182;2024-02-26T12:32:44;4.60;;;2.60;;
12593;SDS011;6362;50.208;9.182;2024-02-26T12:35:11;4.72;;;2.53;;
12593;SDS011;6362;50.208;9.182;2024-02-26T12:37:37;4.90;;;2.63;;
12593;SDS011;6362;50.208;9.182;2024-02-26T12:40:07;4.25;;;3.30;;
12593;SDS011;6362;50.208;9.182;2024-02-26T12:42:34;6.13;;;3.03;;
12593;SDS011;6362;50.208;9.182;2024-02-26T12:45:07;6.82;;;3.33;;
12593;SDS011;6362;50.208;9.182;2024-02-26T12:47:37;3.78;;;2.55;;
12593;SDS011;6362;50.208;9.182;2024-02-26T12:50:10;4.27;;;2.77;;
12593;SDS011;6362;50.208;9.182;2024-02-26T12:52:42;5.78;;;2.63;;
12593;SDS011;6362;50.208;9.182;2024-02-26T12:55:10;5.65;;;2.80;;
12593;SDS011;6362;50.208;9.182;2024-02-26T12:57:38;4.05;;;2.50;;
12593;SDS011;6362;50.208;9.182;2024-02-26T13:00:09;4.15;;;2.30;;
12593;SDS011;6362;50.208;9.182;2024-02-26T13:02:39;4.75;;;2.80;;
12593;SDS011;6362;50.208;9.182;2024-02-26T13:05:07;4.60;;;2.30;;
12593;SDS011;6362;50.208;9.182;2024-02-26T13:07:34;3.42;;;2.30;;
12593;SDS011;6362;50.208;9.182;2024-02-26T13:10:05;5.47;;;2.65;;
12593;SDS011;6362;50.208;9.182;2024-02-26T13:12:31;7.65;;;2.53;;
12593;SDS011;6362;50.208;9.182;2024-02-26T13:15:00;5.20;;;2.50;;
12593;SDS011;6362;50.208;9.182;2024-02-26T13:17:27;6.47;;;2.50;;
12593;SDS011;6362;50.208;9.182;2024-02-26T13:19:53;4.32;;;2.33;;
12593;SDS011;6362;50.208;9.182;2024-02-26T13:22:22;4.20;;;2.55;;
12593;SDS011;6362;50.208;9.182;2024-02-26T13:24:55;5.47;;;2.67;;
12593;SDS011;6362;50.208;9.182;2024-02-26T13:27:22;4.03;;;2.40;;
12593;SDS011;6362;50.208;9.182;2024-02-26T13:29:48;3.53;;;2.28;;
12593;SDS011;6362;50.208;9.182;2024-02-26T13:32:26;3.63;;;2.05;;
12593;SDS011;6362;50.208;9.182;2024-02-26T13:35:03;4.75;;;2.50;;
12593;SDS011;6362;50.208;9.182;2024-02-26T13:37:30;3.97;;;2.47;;
12593;SDS011;6362;50.208;9.182;2024-02-26T13:39:56;3.97;;;2.40;;
12593;SDS011;6362;50.208;9.182;2024-02-26T13:42:24;3.92;;;2.13;;
12593;SDS011;6362;50.208;9.182;2024-02-26T13:44:49;3.67;;;2.42;;
12593;SDS011;6362;50.208;9.182;2024-02-26T13:47:15;3.58;;;2.22;;
12593;SDS011;6362;50.208;9.182;2024-02-26T13:49:41;4.90;;;2.33;;
12593;SDS011;6362;50.208;9.182;2024-02-26T13:52:06;4.10;;;2.38;;
12593;SDS011;6362;50.208;9.182;2024-02-26T13:54:32;5.82;;;2.17;;
12593;SDS011;6362;50.208;9.182;2024-02-26T13:56:58;2.92;;;2.08;;
12593;SDS011;6362;50.208;9.182;2024-02-26T13:59:24;3.33;;;2.30;;
12593;SDS011;6362;50.208;9.182;2024-02-26T14:01:49;5.05;;;2.20;;
12593;SDS011;6362;50.208;9.182;2024-02-26T14:04:15;3.55;;;1.77;;
12593;SDS011;6362;50.208;9.182;2024-02-26T14:06:41;17.35;;;6.80;;
12593;SDS011;6362;50.208;9.182;2024-02-26T14:09:07;6.55;;;3.35;;
12593;SDS011;6362;50.208;9.182;2024-02-26T14:11:33;3.35;;;2.50;;
12593;SDS011;6362;50.208;9.182;2024-02-26T14:13:58;4.28;;;2.63;;
12593;SDS011;6362;50.208;9.182;2024-02-26T14:16:24;5.25;;;2.70;;
12593;SDS011;6362;50.208;9.182;2024-02-26T14:18:49;4.40;;;2.75;;
12593;SDS011;6362;50.208;9.182;2024-02-26T14:21:15;3.92;;;2.45;;
12593;SDS011;6362;50.208;9.182;2024-02-26T14:23:40;4.63;;;2.22;;
12593;SDS011;6362;50.208;9.182;2024-02-26T14:26:07;2.58;;;2.03;;
12593;SDS011;6362;50.208;9.182;2024-02-26T14:28:33;4.63;;;2.17;;
12593;SDS011;6362;50.208;9.182;2024-02-26T14:30:59;3.38;;;2.13;;
12593;SDS011;6362;50.208;9.182;2024-02-26T14:33:24;2.85;;;2.00;;
12593;SDS011;6362;50.208;9.182;2024-02-26T14:35:50;2.17;;;1.67;;
12593;SDS011;6362;50.208;9.182;2024-02-26T14:38:15;3.63;;;1.98;;
12593;SDS011;6362;50.208;9.182;2024-02-26T14:40:41;2.13;;;1.60;;
12593;SDS011;6362;50.208;9.182;2024-02-26T14:43:06;2.72;;;1.92;;
12593;SDS011;6362;50.208;9.182;2024-02-26T14:45:35;2.83;;;1.65;;
12593;SDS011;6362;50.208;9.182;2024-02-26T14:48:00;2.70;;;1.70;;
12593;SDS011;6362;50.208;9.182;2024-02-26T14:50:25;3.00;;;1.67;;
12593;SDS011;6362;50.208;9.182;2024-02-26T14:52:51;3.17;;;1.95;;
12593;SDS011;6362;50.208;9.182;2024-02-26T14:55:16;3.42;;;2.20;;
12593;SDS011;6362;50.208;9.182;2024-02-26T14:57:42;2.92;;;2.00;;
12593;SDS011;6362;50.208;9.182;2024-02-26T15:00:07;3.28;;;1.80;;
12593;SDS011;6362;50.208;9.182;2024-02-26T15:02:36;3.10;;;1.73;;
12593;SDS011;6362;50.208;9.182;2024-02-26T15:05:02;2.28;;;1.63;;